createdAt,value
2023-05-25T00:00:29.097Z,4.10
2023-05-25T00:02:56.444Z,4.63
2023-05-25T00:05:27.475Z,4.45
2023-05-25T00:07:55.446Z,4.53
2023-05-25T00:10:24.101Z,4.45
2023-05-25T00:12:51.818Z,4.38
2023-05-25T00:15:19.072Z,4.30
2023-05-25T00:17:49.079Z,4.65
2023-05-25T00:20:16.267Z,4.28
2023-05-25T00:22:45.110Z,4.60
2023-05-25T00:25:12.632Z,5.03
2023-05-25T00:27:39.539Z,4.20
2023-05-25T00:30:07.702Z,4.95
2023-05-25T00:32:34.913Z,4.10
2023-05-25T00:35:01.871Z,4.45
2023-05-25T00:37:28.921Z,4.85
2023-05-25T00:39:55.986Z,4.72
2023-05-25T00:42:24.122Z,5.00
2023-05-25T00:44:51.156Z,5.00
2023-05-25T00:47:18.154Z,5.07
2023-05-25T00:49:45.085Z,4.95
2023-05-25T00:52:13.257Z,5.30
2023-05-25T00:54:40.313Z,5.15
2023-05-25T00:57:08.486Z,5.45
2023-05-25T00:59:47.099Z,5.20
2023-05-25T01:02:17.514Z,5.20
2023-05-25T01:04:49.710Z,5.07
2023-05-25T01:07:23.476Z,6.03
2023-05-25T01:09:58.229Z,5.13
2023-05-25T01:12:28.745Z,5.15
2023-05-25T01:14:56.419Z,5.97
2023-05-25T01:17:23.396Z,5.30
2023-05-25T01:20:05.592Z,5.72
2023-05-25T01:22:58.212Z,5.65
2023-05-25T01:25:37.433Z,5.43
2023-05-25T01:28:09.398Z,5.85
2023-05-25T01:30:39.430Z,6.28
2023-05-25T01:33:07.987Z,6.05
2023-05-25T01:35:36.653Z,5.82
2023-05-25T01:38:03.641Z,7.32
2023-05-25T01:40:30.564Z,6.15
2023-05-25T01:42:57.526Z,6.45
2023-05-25T01:45:24.798Z,6.15
2023-05-25T01:48:07.390Z,6.40
2023-05-25T01:51:00.186Z,6.32
2023-05-25T01:53:38.945Z,6.22
2023-05-25T01:56:09.302Z,6.30
2023-05-25T01:58:45.262Z,6.60
2023-05-25T02:01:15.729Z,6.25
2023-05-25T02:03:43.110Z,6.40
2023-05-25T02:06:10.359Z,6.78
2023-05-25T02:08:37.195Z,7.05
2023-05-25T02:11:04.359Z,6.43
2023-05-25T02:13:31.304Z,7.90
2023-05-25T02:15:58.209Z,7.25
2023-05-25T02:18:25.139Z,7.22
2023-05-25T02:20:52.058Z,6.45
2023-05-25T02:23:19.414Z,6.40
2023-05-25T02:25:46.653Z,7.25
2023-05-25T02:28:14.839Z,7.32
2023-05-25T02:30:41.782Z,6.63
2023-05-25T02:33:08.839Z,6.05
2023-05-25T02:35:35.838Z,7.10
2023-05-25T02:38:02.750Z,6.60
2023-05-25T02:40:29.756Z,6.88
2023-05-25T02:42:56.703Z,7.90
2023-05-25T02:45:23.540Z,7.40
2023-05-25T02:47:50.515Z,6.85
2023-05-25T02:50:17.454Z,7.10
2023-05-25T02:52:44.496Z,7.15
2023-05-25T02:55:13.705Z,6.85
2023-05-25T02:57:41.161Z,7.15
2023-05-25T03:00:08.519Z,7.05
2023-05-25T03:02:35.473Z,7.18
2023-05-25T03:05:04.409Z,7.00
2023-05-25T03:07:31.744Z,7.32
2023-05-25T03:09:59.654Z,8.25
2023-05-25T03:12:26.677Z,7.25
2023-05-25T03:14:53.559Z,7.25
2023-05-25T03:17:20.709Z,7.60
2023-05-25T03:19:47.548Z,7.40
2023-05-25T03:22:14.533Z,8.07
2023-05-25T03:24:45.134Z,7.40
2023-05-25T03:27:12.083Z,7.97
2023-05-25T03:29:38.935Z,7.90
2023-05-25T03:32:06.326Z,7.28
2023-05-25T03:34:34.785Z,8.02
2023-05-25T03:37:02.222Z,8.02
2023-05-25T03:39:29.184Z,8.57
2023-05-25T03:41:56.789Z,7.85
2023-05-25T03:44:24.148Z,8.70
2023-05-25T03:46:51.318Z,8.20
2023-05-25T03:49:18.297Z,8.48
2023-05-25T03:51:45.339Z,8.23
2023-05-25T03:54:12.252Z,8.60
2023-05-25T03:56:39.219Z,8.50
2023-05-25T03:59:06.363Z,9.20
2023-05-25T04:01:33.329Z,8.95
2023-05-25T04:04:00.510Z,8.80
2023-05-25T04:06:30.139Z,9.38
2023-05-25T04:09:07.011Z,8.80
2023-05-25T04:11:33.839Z,8.40
2023-05-25T04:14:00.734Z,8.98
2023-05-25T04:16:27.779Z,8.82
2023-05-25T04:18:55.940Z,8.05
2023-05-25T04:21:23.079Z,9.10
2023-05-25T04:23:49.955Z,9.35
2023-05-25T04:26:17.096Z,8.98
2023-05-25T04:28:44.057Z,8.88
2023-05-25T04:31:12.880Z,8.48
2023-05-25T04:33:40.793Z,8.68
2023-05-25T04:36:11.092Z,10.45
2023-05-25T04:38:38.121Z,9.15
2023-05-25T04:41:06.589Z,9.95
2023-05-25T04:43:33.844Z,9.00
2023-05-25T04:46:01.076Z,9.27
2023-05-25T04:48:34.298Z,8.93
2023-05-25T04:51:04.635Z,9.18
2023-05-25T04:53:32.346Z,8.32
2023-05-25T04:55:59.573Z,7.95
2023-05-25T04:58:26.507Z,7.85
2023-05-25T05:00:53.482Z,6.75
2023-05-25T05:03:20.714Z,8.00
2023-05-25T05:05:47.717Z,7.72
2023-05-25T05:08:14.626Z,7.30
2023-05-25T05:10:41.820Z,7.78
2023-05-25T05:13:08.993Z,7.15
2023-05-25T05:15:35.866Z,7.50
2023-05-25T05:18:02.835Z,6.75
2023-05-25T05:20:30.012Z,7.30
2023-05-25T05:22:57.033Z,7.30
2023-05-25T05:25:23.948Z,6.97
2023-05-25T05:27:51.157Z,7.38
2023-05-25T05:30:17.981Z,6.60
2023-05-25T05:32:46.598Z,7.07
2023-05-25T05:35:13.778Z,7.50
2023-05-25T05:37:40.736Z,7.00
2023-05-25T05:40:09.105Z,7.50
2023-05-25T05:42:36.336Z,7.60
2023-05-25T05:45:03.262Z,8.00
2023-05-25T05:47:30.165Z,8.23
2023-05-25T05:49:57.254Z,7.75
2023-05-25T05:52:24.135Z,7.97
2023-05-25T05:54:51.132Z,7.68
2023-05-25T05:57:17.992Z,7.30
2023-05-25T05:59:44.964Z,7.82
2023-05-25T06:02:12.188Z,7.38
2023-05-25T06:04:39.599Z,6.90
2023-05-25T06:07:06.635Z,6.85
2023-05-25T06:09:33.474Z,6.93
2023-05-25T06:12:00.404Z,6.45
2023-05-25T06:14:28.728Z,6.30
2023-05-25T06:16:55.925Z,6.35
2023-05-25T06:19:22.885Z,6.20
2023-05-25T06:21:49.732Z,6.05
2023-05-25T06:24:16.676Z,6.15
2023-05-25T06:26:43.733Z,6.38
2023-05-25T06:29:10.893Z,6.57
2023-05-25T06:31:37.809Z,6.03
2023-05-25T06:34:04.667Z,5.60
2023-05-25T06:36:32.668Z,6.50
2023-05-25T06:38:59.677Z,5.93
2023-05-25T06:41:26.532Z,5.72
2023-05-25T06:43:53.486Z,6.40
2023-05-25T06:46:21.667Z,5.85
2023-05-25T06:48:48.562Z,7.38
2023-05-25T06:51:15.636Z,5.80
2023-05-25T06:53:42.559Z,5.82
2023-05-25T06:56:09.487Z,5.95
2023-05-25T06:58:36.446Z,5.63
2023-05-25T07:01:03.843Z,5.72
2023-05-25T07:03:30.914Z,4.78
2023-05-25T07:05:58.615Z,4.50
2023-05-25T07:08:25.540Z,5.63
2023-05-25T07:10:52.423Z,4.55
2023-05-25T07:13:19.370Z,4.53
2023-05-25T07:15:47.347Z,4.90
2023-05-25T07:18:14.565Z,4.28
2023-05-25T07:20:42.438Z,4.75
2023-05-25T07:23:10.865Z,4.50
2023-05-25T07:25:41.404Z,4.80
2023-05-25T07:28:08.769Z,5.20
2023-05-25T07:30:35.783Z,4.50
2023-05-25T07:33:02.730Z,4.47
2023-05-25T07:35:29.812Z,4.15
2023-05-25T07:38:01.548Z,5.20
2023-05-25T07:40:28.828Z,5.15
2023-05-25T07:42:55.858Z,4.00
2023-05-25T07:45:23.156Z,4.45
2023-05-25T07:47:50.201Z,4.60
2023-05-25T07:50:17.458Z,5.35
2023-05-25T07:52:44.434Z,4.70
2023-05-25T07:55:11.607Z,5.13
2023-05-25T07:57:38.655Z,4.95
2023-05-25T08:00:08.029Z,4.55
2023-05-25T08:02:35.079Z,4.90
2023-05-25T08:05:05.751Z,4.57
2023-05-25T08:07:33.788Z,4.65
2023-05-25T08:10:00.801Z,4.20
2023-05-25T08:12:46.069Z,4.07
2023-05-25T08:15:14.515Z,4.53
2023-05-25T08:17:41.985Z,4.00
2023-05-25T08:20:10.759Z,3.83
2023-05-25T08:22:38.079Z,4.07
2023-05-25T08:25:06.882Z,4.18
2023-05-25T08:27:35.711Z,4.15
2023-05-25T08:30:06.508Z,4.28
2023-05-25T08:32:33.618Z,4.18
2023-05-25T08:35:02.075Z,3.90
2023-05-25T08:37:29.433Z,3.20
2023-05-25T08:39:56.565Z,4.57
2023-05-25T08:42:24.019Z,4.03
2023-05-25T08:44:51.025Z,3.90
2023-05-25T08:47:20.570Z,3.78
2023-05-25T08:49:50.191Z,4.10
2023-05-25T08:52:23.645Z,3.63
2023-05-25T08:54:53.680Z,4.00
2023-05-25T08:57:40.877Z,4.40
2023-05-25T09:00:11.667Z,3.58
2023-05-25T09:03:13.896Z,3.88
2023-05-25T09:05:41.043Z,4.15
2023-05-25T09:08:09.476Z,3.90
2023-05-25T09:10:37.687Z,3.80
2023-05-25T09:13:19.802Z,3.65
2023-05-25T09:15:49.457Z,3.50
2023-05-25T09:18:16.436Z,3.70
2023-05-25T09:20:46.200Z,3.38
2023-05-25T09:23:15.063Z,3.72
2023-05-25T09:25:42.366Z,3.53
2023-05-25T09:30:39.920Z,3.55
2023-05-25T09:33:11.986Z,3.30
2023-05-25T09:35:41.000Z,3.28
2023-05-25T09:38:08.152Z,3.45
2023-05-25T09:40:36.039Z,3.30
2023-05-25T09:43:04.229Z,2.90
2023-05-25T09:45:31.847Z,2.90
2023-05-25T09:47:59.688Z,3.28
2023-05-25T09:50:30.182Z,3.38
2023-05-25T09:53:00.209Z,3.00
2023-05-25T09:55:40.474Z,2.72
2023-05-25T09:58:18.140Z,3.05
2023-05-25T10:00:46.536Z,2.88
2023-05-25T10:03:15.584Z,3.50
2023-05-25T10:05:42.738Z,3.60
2023-05-25T10:08:11.674Z,3.20
2023-05-25T10:10:40.152Z,3.35
2023-05-25T10:13:09.559Z,3.25
2023-05-25T10:15:39.909Z,3.60
2023-05-25T10:18:07.276Z,3.78
2023-05-25T10:20:35.315Z,3.13
2023-05-25T10:23:15.125Z,3.47
2023-05-25T10:25:47.523Z,3.45
2023-05-25T10:28:20.500Z,3.60
2023-05-25T10:30:49.627Z,3.22
2023-05-25T10:33:17.175Z,3.63
2023-05-25T10:36:01.749Z,4.85
2023-05-25T10:38:33.256Z,3.90
2023-05-25T10:41:00.918Z,3.80
2023-05-25T10:43:28.193Z,3.40
2023-05-25T10:45:57.552Z,3.55
2023-05-25T10:48:35.129Z,3.35
2023-05-25T10:51:02.035Z,3.35
2023-05-25T10:53:28.956Z,2.90
2023-05-25T10:56:02.510Z,3.53
2023-05-25T10:58:31.482Z,3.08
2023-05-25T11:01:03.266Z,3.75
2023-05-25T11:03:56.122Z,3.65
2023-05-25T11:06:44.764Z,3.42
2023-05-25T11:09:28.786Z,3.25
2023-05-25T11:12:01.956Z,3.08
2023-05-25T11:14:31.182Z,3.17
2023-05-25T11:17:15.549Z,3.10
2023-05-25T11:19:54.585Z,3.30
2023-05-25T11:22:24.260Z,4.07
2023-05-25T11:24:53.015Z,4.93
2023-05-25T11:27:24.088Z,3.08
2023-05-25T11:29:56.785Z,3.30
2023-05-25T11:32:26.250Z,3.40
2023-05-25T11:34:54.205Z,3.75
2023-05-25T11:37:22.821Z,3.40
2023-05-25T11:39:53.751Z,3.75
2023-05-25T11:42:22.168Z,4.20
2023-05-25T11:44:49.310Z,3.75
2023-05-25T11:47:22.812Z,3.75
2023-05-25T11:49:50.174Z,4.97
2023-05-25T11:52:19.373Z,4.20
2023-05-25T11:54:46.945Z,3.90
2023-05-25T11:57:22.657Z,3.83
2023-05-25T11:59:51.590Z,4.03
2023-05-25T12:02:19.626Z,4.50
2023-05-25T12:04:58.440Z,4.15
2023-05-25T12:07:26.841Z,4.00
2023-05-25T12:10:08.922Z,4.28
2023-05-25T12:12:52.414Z,4.28
2023-05-25T12:15:24.280Z,4.57
2023-05-25T12:17:52.642Z,4.35
2023-05-25T12:20:20.481Z,3.88
2023-05-25T12:22:47.945Z,4.30
2023-05-25T12:25:18.453Z,3.40
2023-05-25T12:27:45.636Z,4.22
2023-05-25T12:30:12.742Z,4.15
2023-05-25T12:33:01.697Z,3.70
2023-05-25T12:35:30.406Z,3.50
2023-05-25T12:38:14.345Z,3.45
2023-05-25T12:40:42.295Z,3.35
2023-05-25T12:43:11.662Z,3.88
2023-05-25T12:45:42.911Z,3.17
2023-05-25T12:48:10.251Z,3.25
2023-05-25T12:50:39.034Z,3.58
2023-05-25T12:53:06.211Z,3.30
2023-05-25T12:55:35.821Z,3.45
2023-05-25T12:58:07.659Z,3.35
2023-05-25T13:00:39.346Z,3.42
2023-05-25T13:03:07.819Z,3.70
2023-05-25T13:05:36.882Z,3.97
2023-05-25T13:08:05.399Z,3.75
2023-05-25T13:10:33.274Z,4.00
2023-05-25T13:13:00.792Z,3.95
2023-05-25T13:15:28.427Z,3.63
2023-05-25T13:17:58.433Z,3.05
2023-05-25T13:20:26.877Z,4.68
2023-05-25T13:22:55.786Z,3.35
2023-05-25T13:25:23.160Z,4.10
2023-05-25T13:27:52.806Z,3.33
2023-05-25T13:30:22.977Z,3.80
2023-05-25T13:32:51.727Z,3.38
2023-05-25T13:35:24.164Z,4.10
2023-05-25T13:37:51.388Z,3.78
2023-05-25T13:40:19.222Z,3.95
2023-05-25T13:42:46.116Z,3.45
2023-05-25T13:45:13.883Z,3.78
2023-05-25T13:47:43.696Z,3.65
2023-05-25T13:50:11.321Z,3.50
2023-05-25T13:52:38.183Z,3.38
2023-05-25T13:55:05.518Z,3.55
2023-05-25T13:57:32.488Z,3.45
2023-05-25T13:59:59.676Z,4.65
2023-05-25T14:02:26.795Z,4.63
2023-05-25T14:04:53.900Z,4.35
2023-05-25T14:07:20.804Z,8.18
2023-05-25T14:09:47.656Z,4.50
2023-05-25T14:12:14.604Z,5.13
2023-05-25T14:14:41.536Z,3.83
2023-05-25T14:17:08.428Z,4.22
2023-05-25T14:19:35.437Z,4.63
2023-05-25T14:24:32.122Z,5.38
2023-05-25T14:26:59.214Z,5.18
2023-05-25T14:29:26.179Z,4.00
2023-05-25T14:31:53.337Z,4.07
2023-05-25T14:34:20.263Z,4.47
2023-05-25T14:36:47.103Z,3.63
2023-05-25T14:39:16.467Z,4.60
2023-05-25T14:41:44.381Z,3.97
2023-05-25T14:44:11.334Z,4.13
2023-05-25T14:46:38.424Z,4.40
2023-05-25T14:49:05.392Z,4.38
2023-05-25T14:51:32.453Z,4.32
2023-05-25T14:54:01.342Z,4.50
2023-05-25T14:56:28.434Z,4.22
2023-05-25T14:58:55.317Z,4.53
2023-05-25T15:01:25.056Z,4.10
2023-05-25T15:03:52.635Z,4.60
2023-05-25T15:06:19.851Z,4.80
2023-05-25T15:08:46.917Z,4.20
2023-05-25T15:11:13.847Z,4.00
2023-05-25T15:13:41.172Z,4.25
2023-05-25T15:16:11.836Z,4.72
2023-05-25T15:18:38.865Z,4.43
2023-05-25T15:21:06.331Z,4.40
2023-05-25T15:23:33.201Z,4.05
2023-05-25T15:26:04.456Z,4.22
2023-05-25T15:28:31.767Z,4.40
2023-05-25T15:31:02.368Z,4.20
2023-05-25T15:33:48.532Z,4.85
2023-05-25T15:36:19.980Z,4.20
2023-05-25T15:38:49.479Z,4.82
2023-05-25T15:41:17.553Z,4.65
2023-05-25T15:43:58.609Z,4.55
2023-05-25T15:46:25.961Z,4.32
2023-05-25T15:48:53.436Z,4.13
2023-05-25T15:51:22.815Z,3.58
2023-05-25T15:53:49.886Z,4.10
2023-05-25T15:56:16.728Z,3.63
2023-05-25T15:58:47.172Z,4.30
2023-05-25T16:01:14.147Z,3.92
2023-05-25T16:03:45.885Z,3.95
2023-05-25T16:06:13.327Z,3.92
2023-05-25T16:08:40.227Z,4.32
2023-05-25T16:11:17.578Z,4.03
2023-05-25T16:13:47.637Z,3.92
2023-05-25T16:16:14.651Z,3.90
2023-05-25T16:18:41.720Z,3.83
2023-05-25T16:21:12.797Z,4.15
2023-05-25T16:23:42.531Z,4.35
2023-05-25T16:26:12.636Z,4.07
2023-05-25T16:28:40.347Z,4.32
2023-05-25T16:31:07.529Z,4.50
2023-05-25T16:33:39.192Z,4.03
2023-05-25T16:36:09.026Z,3.90
2023-05-25T16:38:35.966Z,5.75
2023-05-25T16:41:02.804Z,3.90
2023-05-25T16:43:30.515Z,4.50
2023-05-25T16:46:00.401Z,3.97
2023-05-25T16:48:28.472Z,3.85
2023-05-25T16:50:55.277Z,3.80
2023-05-25T16:53:22.162Z,3.67
2023-05-25T16:55:49.168Z,4.13
2023-05-25T16:58:16.120Z,4.43
2023-05-25T17:00:43.145Z,4.22
2023-05-25T17:03:10.134Z,3.75
2023-05-25T17:05:37.382Z,3.67
2023-05-25T17:08:04.287Z,3.88
2023-05-25T17:10:31.263Z,4.22
2023-05-25T17:12:58.177Z,4.07
2023-05-25T17:15:25.066Z,4.50
2023-05-25T17:17:51.948Z,4.10
2023-05-25T17:20:18.906Z,3.67
2023-05-25T17:22:47.953Z,3.90
2023-05-25T17:25:14.834Z,4.50
2023-05-25T17:27:41.713Z,4.30
2023-05-25T17:30:09.303Z,4.18
2023-05-25T17:32:42.507Z,4.07
2023-05-25T17:35:09.712Z,3.42
2023-05-25T17:37:36.957Z,3.90
2023-05-25T17:40:04.972Z,4.00
2023-05-25T17:42:31.917Z,4.07
2023-05-25T17:44:58.842Z,4.20
2023-05-25T17:47:26.336Z,3.72
2023-05-25T17:49:53.390Z,4.40
2023-05-25T17:52:20.533Z,4.15
2023-05-25T17:54:47.360Z,4.30
2023-05-25T17:57:16.648Z,4.55
2023-05-25T17:59:45.631Z,4.03
2023-05-25T18:02:12.915Z,4.30
2023-05-25T18:04:41.249Z,3.70
2023-05-25T18:07:08.179Z,4.18
2023-05-25T18:09:35.043Z,4.20
2023-05-25T18:12:02.023Z,4.00
2023-05-25T18:14:32.006Z,4.25
2023-05-25T18:16:58.868Z,3.80
2023-05-25T18:19:26.229Z,3.50
2023-05-25T18:21:53.072Z,4.45
2023-05-25T18:24:19.986Z,4.57
2023-05-25T18:26:47.028Z,3.78
2023-05-25T18:29:13.925Z,3.85
2023-05-25T18:31:45.674Z,4.40
2023-05-25T18:34:13.413Z,4.07
2023-05-25T18:36:40.440Z,4.32
2023-05-25T18:39:07.604Z,4.05
2023-05-25T18:41:34.652Z,4.43
2023-05-25T18:44:01.501Z,4.00
2023-05-25T18:46:29.167Z,4.97
2023-05-25T18:48:56.333Z,4.00
2023-05-25T18:51:25.742Z,4.15
2023-05-25T18:53:53.378Z,3.88
2023-05-25T18:56:20.408Z,4.22
2023-05-25T18:58:48.779Z,4.88
2023-05-25T19:01:17.164Z,4.78
2023-05-25T19:03:44.274Z,5.00
2023-05-25T19:06:11.202Z,5.13
2023-05-25T19:08:37.990Z,4.85
2023-05-25T19:11:04.860Z,4.80
2023-05-25T19:13:31.722Z,5.72
2023-05-25T19:15:58.595Z,4.32
2023-05-25T19:18:25.475Z,4.53
2023-05-25T19:20:52.569Z,4.53
2023-05-25T19:23:19.545Z,5.18
2023-05-25T19:25:46.670Z,4.80
2023-05-25T19:28:14.320Z,4.68
2023-05-25T19:30:41.353Z,4.88
2023-05-25T19:33:08.372Z,4.90
2023-05-25T19:35:35.637Z,4.57
2023-05-25T19:38:02.918Z,5.28
2023-05-25T19:40:29.782Z,4.97
2023-05-25T19:42:56.576Z,4.68
2023-05-25T19:45:23.463Z,6.03
2023-05-25T19:47:50.790Z,5.55
2023-05-25T19:50:17.799Z,5.07
2023-05-25T19:52:45.919Z,5.57
2023-05-25T19:55:12.864Z,5.03
2023-05-25T19:57:39.921Z,5.13
2023-05-25T20:00:11.609Z,5.22
2023-05-25T20:02:48.336Z,5.82
2023-05-25T20:05:15.497Z,5.40
2023-05-25T20:07:43.997Z,5.38
2023-05-25T20:10:10.990Z,4.57
2023-05-25T20:12:38.116Z,5.15
2023-05-25T20:15:05.813Z,6.65
2023-05-25T20:17:32.730Z,5.95
2023-05-25T20:20:00.798Z,6.22
2023-05-25T20:22:28.109Z,5.47
2023-05-25T20:24:58.316Z,5.20
2023-05-25T20:27:25.640Z,5.32
2023-05-25T20:29:52.529Z,5.40
2023-05-25T20:32:19.707Z,5.90
2023-05-25T20:34:46.668Z,7.07
2023-05-25T20:37:13.639Z,6.05
2023-05-25T20:39:40.556Z,5.55
2023-05-25T20:42:07.508Z,6.10
2023-05-25T20:44:34.484Z,5.53
2023-05-25T20:47:01.411Z,6.93
2023-05-25T20:49:28.282Z,5.43
2023-05-25T20:51:55.126Z,6.53
2023-05-25T20:54:22.057Z,6.43
2023-05-25T20:56:51.044Z,5.45
2023-05-25T20:59:18.098Z,5.45
2023-05-25T21:01:44.992Z,6.90
2023-05-25T21:04:12.054Z,6.10
2023-05-25T21:06:38.957Z,6.78
2023-05-25T21:09:06.129Z,6.68
2023-05-25T21:11:33.031Z,6.13
2023-05-25T21:14:00.276Z,6.07
2023-05-25T21:16:27.373Z,5.45
2023-05-25T21:18:54.198Z,6.18
2023-05-25T21:21:21.144Z,5.82
2023-05-25T21:23:47.977Z,7.18
2023-05-25T21:26:15.030Z,5.80
2023-05-25T21:28:42.105Z,6.28
2023-05-25T21:31:09.161Z,6.45
2023-05-25T21:33:37.613Z,5.82
2023-05-25T21:36:04.563Z,6.63
2023-05-25T21:38:31.600Z,5.68
2023-05-25T21:40:59.070Z,6.55
2023-05-25T21:43:28.977Z,5.60
2023-05-25T21:45:56.216Z,6.68
2023-05-25T21:48:23.482Z,6.18
2023-05-25T21:50:53.919Z,6.57
2023-05-25T21:53:21.468Z,5.72
2023-05-25T21:55:48.531Z,6.65
2023-05-25T21:58:19.178Z,6.35
2023-05-25T22:00:46.287Z,6.70
2023-05-25T22:03:13.535Z,5.88
2023-05-25T22:05:40.566Z,6.57
2023-05-25T22:08:07.444Z,6.65
2023-05-25T22:10:34.482Z,6.93
2023-05-25T22:13:02.023Z,6.38
2023-05-25T22:15:28.882Z,5.75
2023-05-25T22:17:56.421Z,6.63
2023-05-25T22:20:23.610Z,6.13
2023-05-25T22:22:50.486Z,6.53
2023-05-25T22:25:17.411Z,7.35
2023-05-25T22:27:44.543Z,6.75
2023-05-25T22:30:11.857Z,6.07
2023-05-25T22:32:38.838Z,5.97
2023-05-25T22:35:06.445Z,6.25
2023-05-25T22:37:33.390Z,7.13
2023-05-25T22:40:01.136Z,7.35
2023-05-25T22:42:28.021Z,7.07
2023-05-25T22:44:57.859Z,7.47
2023-05-25T22:47:24.972Z,7.10
2023-05-25T22:49:52.252Z,6.40
2023-05-25T22:52:19.791Z,6.00
2023-05-25T22:54:46.696Z,7.72
2023-05-25T22:57:13.775Z,6.03
2023-05-25T22:59:40.699Z,7.20
2023-05-25T23:02:08.254Z,7.90
2023-05-25T23:04:38.529Z,6.47
2023-05-25T23:07:05.724Z,6.88
2023-05-25T23:09:32.642Z,6.13
2023-05-25T23:11:59.520Z,7.35
2023-05-25T23:14:28.185Z,6.57
2023-05-25T23:16:55.184Z,7.30
2023-05-25T23:19:23.538Z,6.85
2023-05-25T23:21:50.469Z,6.18
2023-05-25T23:24:17.498Z,6.07
2023-05-25T23:26:44.396Z,6.72
2023-05-25T23:29:11.326Z,5.75
2023-05-25T23:31:38.613Z,7.85
2023-05-25T23:34:05.685Z,5.70
2023-05-25T23:36:33.756Z,6.63
2023-05-25T23:39:00.963Z,6.07
2023-05-25T23:41:28.290Z,7.32
2023-05-25T23:43:55.202Z,7.63
2023-05-25T23:46:22.271Z,6.30
2023-05-25T23:48:49.274Z,6.68
2023-05-25T23:51:16.552Z,5.65
2023-05-25T23:53:43.470Z,6.70
2023-05-25T23:56:10.441Z,6.20
2023-05-25T23:58:37.584Z,5.85
